Accueil
METAR-TAF:

METAR-TAF

Aéroports :

Castres, France

Aéroport de Castres-Mazamet

latitude: 43-33-25N, longitude: 2-17-21E, altitude: 239 m

Observation

Le bulletin a été fait il y a 34 minutes, à 10:00 UTC
Vent 12 kt de ouest/nord-ouest
Température 0°C
Humidité 80%
Pression 1010 hPa
Visibilité: 6000 m
Ciel couvert à une hauteur de 1600 ft

METAR: LFCK 221000Z AUTO 29012KT 6000 OVC016 00/M03 Q1010 TEMPO BKN012

Heure: 11:34 (10:34 UTC)

Prévision

Le bulletin a été fait il y a 2 heures et 34 minutes, à 08:00 UTC
Prévision valable du 22 à 09 UTC au 22 à 18 UTC
Vent 13 kt de ouest
Visibilité 10 km ou plus
Nuages épars à une hauteur de 1400 ft
Nuages fragmentés à une hauteur de 4500 ft
Probabilité 30% :
Temporairement
du 22 à 09 UTC au 22 à 11 UTC
Nuages fragmentés à une hauteur de 1200 ft

TAF: LFCK 220800Z 2209/2218 28013KT 9999 SCT014 BKN045 PROB30 TEMPO 2209/2211 BKN012

Observations et prévisions météorologiques de plus de 4000 aéroports (messages METAR et TAF).

Les stations disponibles sont représentées par des disques jaunes et rouges sur la carte.

Passer la souris dessus pour voir le nom de la station.

Cliquer dessus pour voir les observations et prévisions météorologiques.

Pour changer de carte: cliquez sur les boutons verts avec une croix noire pour zoomer, sur le bouton vert avec un tiret pour effectuer un zoom arrière, ou sur les flèches vertes pour les cartes adjacentes.


METAR-TAF: